sensor_id;sensor_type;location;lat;lon;timestamp;temperature;humidity
64226;DHT22;50545;56.064;26.178;2024-03-02T00:00:41;3.20;99.90
64226;DHT22;50545;56.064;26.178;2024-03-02T00:03:08;3.20;99.90
64226;DHT22;50545;56.064;26.178;2024-03-02T00:05:38;3.20;99.90
64226;DHT22;50545;56.064;26.178;2024-03-02T00:08:07;3.20;99.90
64226;DHT22;50545;56.064;26.178;2024-03-02T00:10:38;3.20;99.90
64226;DHT22;50545;56.064;26.178;2024-03-02T00:13:10;3.20;99.90
64226;DHT22;50545;56.064;26.178;2024-03-02T00:18:20;3.10;99.90
64226;DHT22;50545;56.064;26.178;2024-03-02T00:20:48;3.10;99.90
64226;DHT22;50545;56.064;26.178;2024-03-02T00:23:16;3.10;99.90
64226;DHT22;50545;56.064;26.178;2024-03-02T00:25:48;3.10;99.90
64226;DHT22;50545;56.064;26.178;2024-03-02T00:28:21;3.10;99.90
64226;DHT22;50545;56.064;26.178;2024-03-02T00:30:59;3.10;99.90
64226;DHT22;50545;56.064;26.178;2024-03-02T00:33:32;3.10;99.90
64226;DHT22;50545;56.064;26.178;2024-03-02T00:36:00;3.10;99.90
64226;DHT22;50545;56.064;26.178;2024-03-02T00:38:29;3.10;99.90
64226;DHT22;50545;56.064;26.178;2024-03-02T00:41:04;3.10;99.90
64226;DHT22;50545;56.064;26.178;2024-03-02T00:44:06;3.10;99.90
64226;DHT22;50545;56.064;26.178;2024-03-02T00:46:35;3.10;99.90
64226;DHT22;50545;56.064;26.178;2024-03-02T00:49:24;3.10;99.90
64226;DHT22;50545;56.064;26.178;2024-03-02T00:51:53;3.10;99.90
64226;DHT22;50545;56.064;26.178;2024-03-02T00:54:23;3.10;99.90
64226;DHT22;50545;56.064;26.178;2024-03-02T00:56:52;3.10;99.90
64226;DHT22;50545;56.064;26.178;2024-03-02T00:59:23;3.10;99.90
64226;DHT22;50545;56.064;26.178;2024-03-02T01:01:51;3.00;99.90
64226;DHT22;50545;56.064;26.178;2024-03-02T01:04:19;3.00;99.90
64226;DHT22;50545;56.064;26.178;2024-03-02T01:06:47;3.00;99.90
64226;DHT22;50545;56.064;26.178;2024-03-02T01:09:15;3.00;99.90
64226;DHT22;50545;56.064;26.178;2024-03-02T01:11:44;3.00;99.90
64226;DHT22;50545;56.064;26.178;2024-03-02T01:14:11;3.00;99.90
64226;DHT22;50545;56.064;26.178;2024-03-02T01:16:39;3.00;99.90
64226;DHT22;50545;56.064;26.178;2024-03-02T01:19:06;3.00;99.90
64226;DHT22;50545;56.064;26.178;2024-03-02T01:21:34;3.00;99.90
64226;DHT22;50545;56.064;26.178;2024-03-02T01:24:01;3.00;99.90
64226;DHT22;50545;56.064;26.178;2024-03-02T01:26:29;2.90;99.90
64226;DHT22;50545;56.064;26.178;2024-03-02T01:28:58;2.90;99.90
64226;DHT22;50545;56.064;26.178;2024-03-02T01:31:25;2.90;99.90
64226;DHT22;50545;56.064;26.178;2024-03-02T01:33:53;3.00;99.90
64226;DHT22;50545;56.064;26.178;2024-03-02T01:36:20;3.00;99.90
64226;DHT22;50545;56.064;26.178;2024-03-02T01:38:48;3.00;99.90
64226;DHT22;50545;56.064;26.178;2024-03-02T01:41:16;2.90;99.90
64226;DHT22;50545;56.064;26.178;2024-03-02T01:43:43;2.90;99.90
64226;DHT22;50545;56.064;26.178;2024-03-02T01:46:11;3.00;99.90
64226;DHT22;50545;56.064;26.178;2024-03-02T01:48:38;2.90;99.90
64226;DHT22;50545;56.064;26.178;2024-03-02T01:51:06;3.00;99.90
64226;DHT22;50545;56.064;26.178;2024-03-02T01:53:37;2.90;99.90
64226;DHT22;50545;56.064;26.178;2024-03-02T01:56:05;2.90;99.90
64226;DHT22;50545;56.064;26.178;2024-03-02T01:58:32;2.90;99.90
64226;DHT22;50545;56.064;26.178;2024-03-02T02:01:00;2.90;99.90
64226;DHT22;50545;56.064;26.178;2024-03-02T02:03:28;2.90;99.90
64226;DHT22;50545;56.064;26.178;2024-03-02T02:05:55;2.90;99.90
64226;DHT22;50545;56.064;26.178;2024-03-02T02:08:23;2.90;99.90
64226;DHT22;50545;56.064;26.178;2024-03-02T02:10:50;2.90;99.90
64226;DHT22;50545;56.064;26.178;2024-03-02T02:13:18;2.90;99.90
64226;DHT22;50545;56.064;26.178;2024-03-02T02:15:45;2.90;99.90
64226;DHT22;50545;56.064;26.178;2024-03-02T02:18:13;2.90;99.90
64226;DHT22;50545;56.064;26.178;2024-03-02T02:20:41;2.90;99.90
64226;DHT22;50545;56.064;26.178;2024-03-02T02:23:08;2.90;99.90
64226;DHT22;50545;56.064;26.178;2024-03-02T02:25:37;2.90;99.90
64226;DHT22;50545;56.064;26.178;2024-03-02T02:28:05;2.90;99.90
64226;DHT22;50545;56.064;26.178;2024-03-02T02:30:32;2.90;99.90
64226;DHT22;50545;56.064;26.178;2024-03-02T02:33:00;2.90;99.90
64226;DHT22;50545;56.064;26.178;2024-03-02T02:35:28;2.90;99.90
64226;DHT22;50545;56.064;26.178;2024-03-02T02:37:57;2.80;99.90
64226;DHT22;50545;56.064;26.178;2024-03-02T02:40:26;2.80;99.90
64226;DHT22;50545;56.064;26.178;2024-03-02T02:42:53;2.80;99.90
64226;DHT22;50545;56.064;26.178;2024-03-02T02:45:21;2.80;99.90
64226;DHT22;50545;56.064;26.178;2024-03-02T02:47:49;2.80;99.90
64226;DHT22;50545;56.064;26.178;2024-03-02T02:50:17;2.80;99.90
64226;DHT22;50545;56.064;26.178;2024-03-02T02:52:44;2.80;99.90
64226;DHT22;50545;56.064;26.178;2024-03-02T02:55:13;2.80;99.90
64226;DHT22;50545;56.064;26.178;2024-03-02T02:57:43;2.80;99.90
64226;DHT22;50545;56.064;26.178;2024-03-02T03:00:14;2.80;99.90
64226;DHT22;50545;56.064;26.178;2024-03-02T03:02:49;2.80;99.90
64226;DHT22;50545;56.064;26.178;2024-03-02T03:05:18;2.70;99.90
64226;DHT22;50545;56.064;26.178;2024-03-02T03:07:46;2.70;99.90
64226;DHT22;50545;56.064;26.178;2024-03-02T03:10:16;2.70;99.90
64226;DHT22;50545;56.064;26.178;2024-03-02T03:12:43;2.70;99.90
64226;DHT22;50545;56.064;26.178;2024-03-02T03:15:11;2.70;99.90
64226;DHT22;50545;56.064;26.178;2024-03-02T03:17:40;2.70;99.90
64226;DHT22;50545;56.064;26.178;2024-03-02T03:20:08;2.70;99.90
64226;DHT22;50545;56.064;26.178;2024-03-02T03:22:40;2.70;99.90
64226;DHT22;50545;56.064;26.178;2024-03-02T03:25:08;2.60;99.90
64226;DHT22;50545;56.064;26.178;2024-03-02T03:27:36;2.60;99.90
64226;DHT22;50545;56.064;26.178;2024-03-02T03:30:04;2.60;99.90
64226;DHT22;50545;56.064;26.178;2024-03-02T03:32:34;2.60;99.90
64226;DHT22;50545;56.064;26.178;2024-03-02T03:35:02;2.60;99.90
64226;DHT22;50545;56.064;26.178;2024-03-02T03:37:29;2.60;99.90
64226;DHT22;50545;56.064;26.178;2024-03-02T03:40:04;2.60;99.90
64226;DHT22;50545;56.064;26.178;2024-03-02T03:42:38;2.60;99.90
64226;DHT22;50545;56.064;26.178;2024-03-02T03:45:07;2.60;99.90
64226;DHT22;50545;56.064;26.178;2024-03-02T03:47:35;2.60;99.90
64226;DHT22;50545;56.064;26.178;2024-03-02T03:50:03;2.60;99.90
64226;DHT22;50545;56.064;26.178;2024-03-02T03:52:34;2.60;99.90
64226;DHT22;50545;56.064;26.178;2024-03-02T03:55:02;2.60;99.90
64226;DHT22;50545;56.064;26.178;2024-03-02T03:57:29;2.60;99.90
64226;DHT22;50545;56.064;26.178;2024-03-02T03:59:57;2.60;99.90
64226;DHT22;50545;56.064;26.178;2024-03-02T04:02:24;2.60;99.90
64226;DHT22;50545;56.064;26.178;2024-03-02T04:04:53;2.60;99.90
64226;DHT22;50545;56.064;26.178;2024-03-02T04:07:20;2.60;99.90
64226;DHT22;50545;56.064;26.178;2024-03-02T04:09:48;2.60;99.90
64226;DHT22;50545;56.064;26.178;2024-03-02T04:12:15;2.60;99.90
64226;DHT22;50545;56.064;26.178;2024-03-02T04:14:43;2.60;99.90
64226;DHT22;50545;56.064;26.178;2024-03-02T04:17:10;2.60;99.90
64226;DHT22;50545;56.064;26.178;2024-03-02T04:19:38;2.60;99.90
64226;DHT22;50545;56.064;26.178;2024-03-02T04:22:05;2.60;99.90
64226;DHT22;50545;56.064;26.178;2024-03-02T04:24:45;2.60;99.90
64226;DHT22;50545;56.064;26.178;2024-03-02T04:27:12;2.60;99.90
64226;DHT22;50545;56.064;26.178;2024-03-02T04:29:40;2.60;99.90
64226;DHT22;50545;56.064;26.178;2024-03-02T04:32:07;2.50;99.90
64226;DHT22;50545;56.064;26.178;2024-03-02T04:34:35;2.50;99.90
64226;DHT22;50545;56.064;26.178;2024-03-02T04:37:03;2.50;99.90
64226;DHT22;50545;56.064;26.178;2024-03-02T04:39:30;2.50;99.90
64226;DHT22;50545;56.064;26.178;2024-03-02T04:41:58;2.50;99.90
64226;DHT22;50545;56.064;26.178;2024-03-02T04:44:26;2.50;99.90
64226;DHT22;50545;56.064;26.178;2024-03-02T04:46:53;2.50;99.90
64226;DHT22;50545;56.064;26.178;2024-03-02T04:49:21;2.50;99.90
64226;DHT22;50545;56.064;26.178;2024-03-02T04:51:49;2.50;99.90
64226;DHT22;50545;56.064;26.178;2024-03-02T04:54:16;2.50;99.90
64226;DHT22;50545;56.064;26.178;2024-03-02T04:56:44;2.50;99.90
64226;DHT22;50545;56.064;26.178;2024-03-02T04:59:17;2.50;99.90
64226;DHT22;50545;56.064;26.178;2024-03-02T05:01:46;2.50;99.90
64226;DHT22;50545;56.064;26.178;2024-03-02T05:04:14;2.50;99.90
64226;DHT22;50545;56.064;26.178;2024-03-02T05:06:42;2.50;99.90
64226;DHT22;50545;56.064;26.178;2024-03-02T05:09:10;2.50;99.90
64226;DHT22;50545;56.064;26.178;2024-03-02T05:11:37;2.50;99.90
64226;DHT22;50545;56.064;26.178;2024-03-02T05:14:05;2.50;99.90
64226;DHT22;50545;56.064;26.178;2024-03-02T05:16:36;2.50;99.90
64226;DHT22;50545;56.064;26.178;2024-03-02T05:19:05;2.50;99.90
64226;DHT22;50545;56.064;26.178;2024-03-02T05:21:36;2.50;99.90
64226;DHT22;50545;56.064;26.178;2024-03-02T05:24:03;2.50;99.90
64226;DHT22;50545;56.064;26.178;2024-03-02T05:26:31;2.50;99.90
64226;DHT22;50545;56.064;26.178;2024-03-02T05:28:59;2.50;99.90
64226;DHT22;50545;56.064;26.178;2024-03-02T05:31:26;2.50;99.90
64226;DHT22;50545;56.064;26.178;2024-03-02T05:33:54;2.50;99.90
64226;DHT22;50545;56.064;26.178;2024-03-02T05:36:24;2.60;99.90
64226;DHT22;50545;56.064;26.178;2024-03-02T05:38:52;2.50;99.90
64226;DHT22;50545;56.064;26.178;2024-03-02T05:41:19;2.50;99.90
64226;DHT22;50545;56.064;26.178;2024-03-02T05:43:47;2.60;99.90
64226;DHT22;50545;56.064;26.178;2024-03-02T05:46:14;2.60;99.90
64226;DHT22;50545;56.064;26.178;2024-03-02T05:48:42;2.60;99.90
64226;DHT22;50545;56.064;26.178;2024-03-02T05:51:09;2.60;99.90
64226;DHT22;50545;56.064;26.178;2024-03-02T05:53:37;2.60;99.90
64226;DHT22;50545;56.064;26.178;2024-03-02T05:56:06;2.60;99.90
64226;DHT22;50545;56.064;26.178;2024-03-02T05:58:33;2.60;99.90
64226;DHT22;50545;56.064;26.178;2024-03-02T06:01:19;2.60;99.90
64226;DHT22;50545;56.064;26.178;2024-03-02T06:03:47;2.60;99.90
64226;DHT22;50545;56.064;26.178;2024-03-02T06:06:16;2.60;99.90
64226;DHT22;50545;56.064;26.178;2024-03-02T06:08:44;2.60;99.90
64226;DHT22;50545;56.064;26.178;2024-03-02T06:11:11;2.60;99.90
64226;DHT22;50545;56.064;26.178;2024-03-02T06:13:38;2.60;99.90
64226;DHT22;50545;56.064;26.178;2024-03-02T06:16:06;2.60;99.90
64226;DHT22;50545;56.064;26.178;2024-03-02T06:18:34;2.70;99.90
64226;DHT22;50545;56.064;26.178;2024-03-02T06:21:02;2.60;99.90
64226;DHT22;50545;56.064;26.178;2024-03-02T06:23:30;2.60;99.90
64226;DHT22;50545;56.064;26.178;2024-03-02T06:25:57;2.70;99.90
64226;DHT22;50545;56.064;26.178;2024-03-02T06:28:25;2.70;99.90
64226;DHT22;50545;56.064;26.178;2024-03-02T06:30:52;2.70;99.90
64226;DHT22;50545;56.064;26.178;2024-03-02T06:33:20;2.70;99.90
64226;DHT22;50545;56.064;26.178;2024-03-02T06:35:48;2.70;99.90
64226;DHT22;50545;56.064;26.178;2024-03-02T06:38:16;2.70;99.90
64226;DHT22;50545;56.064;26.178;2024-03-02T06:40:43;2.70;99.90
64226;DHT22;50545;56.064;26.178;2024-03-02T06:43:11;2.70;99.90
64226;DHT22;50545;56.064;26.178;2024-03-02T06:45:39;2.70;99.90
64226;DHT22;50545;56.064;26.178;2024-03-02T06:48:07;2.70;99.90
64226;DHT22;50545;56.064;26.178;2024-03-02T06:50:34;2.80;99.90
64226;DHT22;50545;56.064;26.178;2024-03-02T06:53:02;2.80;99.90
64226;DHT22;50545;56.064;26.178;2024-03-02T06:55:31;2.80;99.90
64226;DHT22;50545;56.064;26.178;2024-03-02T06:57:58;2.80;99.90
64226;DHT22;50545;56.064;26.178;2024-03-02T07:00:26;2.80;99.90
64226;DHT22;50545;56.064;26.178;2024-03-02T07:02:54;2.80;99.90
64226;DHT22;50545;56.064;26.178;2024-03-02T07:05:21;2.80;99.90
64226;DHT22;50545;56.064;26.178;2024-03-02T07:07:49;2.90;99.90
64226;DHT22;50545;56.064;26.178;2024-03-02T07:10:16;2.90;99.90
64226;DHT22;50545;56.064;26.178;2024-03-02T07:12:44;2.90;99.90
64226;DHT22;50545;56.064;26.178;2024-03-02T07:15:12;2.90;99.90
64226;DHT22;50545;56.064;26.178;2024-03-02T07:17:56;3.00;99.90
64226;DHT22;50545;56.064;26.178;2024-03-02T07:20:24;3.00;99.90
64226;DHT22;50545;56.064;26.178;2024-03-02T07:22:51;3.00;99.90
64226;DHT22;50545;56.064;26.178;2024-03-02T07:25:19;3.00;99.90
64226;DHT22;50545;56.064;26.178;2024-03-02T07:27:49;3.10;99.90
64226;DHT22;50545;56.064;26.178;2024-03-02T07:30:17;3.10;99.90
64226;DHT22;50545;56.064;26.178;2024-03-02T07:32:45;3.10;99.90
64226;DHT22;50545;56.064;26.178;2024-03-02T07:35:13;3.10;99.90
64226;DHT22;50545;56.064;26.178;2024-03-02T07:37:42;3.10;99.90
64226;DHT22;50545;56.064;26.178;2024-03-02T07:40:10;3.20;99.90
64226;DHT22;50545;56.064;26.178;2024-03-02T07:42:41;3.20;99.90
64226;DHT22;50545;56.064;26.178;2024-03-02T07:45:09;3.30;99.90
64226;DHT22;50545;56.064;26.178;2024-03-02T07:47:38;3.30;99.90
64226;DHT22;50545;56.064;26.178;2024-03-02T07:50:06;3.30;99.90
64226;DHT22;50545;56.064;26.178;2024-03-02T07:52:33;3.40;99.90
64226;DHT22;50545;56.064;26.178;2024-03-02T07:55:01;3.40;99.90
64226;DHT22;50545;56.064;26.178;2024-03-02T07:57:29;3.50;99.90
64226;DHT22;50545;56.064;26.178;2024-03-02T07:59:56;3.50;99.90
64226;DHT22;50545;56.064;26.178;2024-03-02T08:02:24;3.50;99.90
64226;DHT22;50545;56.064;26.178;2024-03-02T08:04:51;3.50;99.90
64226;DHT22;50545;56.064;26.178;2024-03-02T08:07:19;3.50;99.90
64226;DHT22;50545;56.064;26.178;2024-03-02T08:09:46;3.60;99.90
64226;DHT22;50545;56.064;26.178;2024-03-02T08:12:14;3.60;99.90
64226;DHT22;50545;56.064;26.178;2024-03-02T08:14:41;3.60;99.90
64226;DHT22;50545;56.064;26.178;2024-03-02T08:17:09;3.60;99.90
64226;DHT22;50545;56.064;26.178;2024-03-02T08:19:38;3.70;99.90
64226;DHT22;50545;56.064;26.178;2024-03-02T08:22:05;3.80;99.90
64226;DHT22;50545;56.064;26.178;2024-03-02T08:24:34;3.90;99.90
64226;DHT22;50545;56.064;26.178;2024-03-02T08:27:01;3.90;99.90
64226;DHT22;50545;56.064;26.178;2024-03-02T08:29:29;3.90;99.90
64226;DHT22;50545;56.064;26.178;2024-03-02T08:31:57;3.90;99.90
64226;DHT22;50545;56.064;26.178;2024-03-02T08:34:24;4.00;99.90
64226;DHT22;50545;56.064;26.178;2024-03-02T08:36:52;4.00;99.90
64226;DHT22;50545;56.064;26.178;2024-03-02T08:39:20;4.10;99.90
64226;DHT22;50545;56.064;26.178;2024-03-02T08:41:48;4.10;99.90
64226;DHT22;50545;56.064;26.178;2024-03-02T08:44:16;4.10;99.90
64226;DHT22;50545;56.064;26.178;2024-03-02T08:46:44;4.20;99.90
64226;DHT22;50545;56.064;26.178;2024-03-02T08:49:12;4.30;99.90
64226;DHT22;50545;56.064;26.178;2024-03-02T08:51:39;4.30;99.90
64226;DHT22;50545;56.064;26.178;2024-03-02T08:54:07;4.30;99.90
64226;DHT22;50545;56.064;26.178;2024-03-02T08:56:35;4.40;99.90
64226;DHT22;50545;56.064;26.178;2024-03-02T08:59:03;4.60;99.90
64226;DHT22;50545;56.064;26.178;2024-03-02T09:01:31;4.60;99.90
64226;DHT22;50545;56.064;26.178;2024-03-02T09:03:58;4.80;99.90
64226;DHT22;50545;56.064;26.178;2024-03-02T09:06:26;4.80;99.90
64226;DHT22;50545;56.064;26.178;2024-03-02T09:08:54;4.80;99.90
64226;DHT22;50545;56.064;26.178;2024-03-02T09:11:21;4.90;99.90
64226;DHT22;50545;56.064;26.178;2024-03-02T09:13:49;4.90;99.90
64226;DHT22;50545;56.064;26.178;2024-03-02T09:16:16;5.00;99.90
64226;DHT22;50545;56.064;26.178;2024-03-02T09:18:44;5.10;99.90
64226;DHT22;50545;56.064;26.178;2024-03-02T09:21:12;5.30;99.90
64226;DHT22;50545;56.064;26.178;2024-03-02T09:23:39;5.40;99.90
64226;DHT22;50545;56.064;26.178;2024-03-02T09:26:07;5.50;99.90
64226;DHT22;50545;56.064;26.178;2024-03-02T09:28:35;5.60;99.90
64226;DHT22;50545;56.064;26.178;2024-03-02T09:31:02;5.70;99.90
64226;DHT22;50545;56.064;26.178;2024-03-02T09:33:30;5.70;99.90
64226;DHT22;50545;56.064;26.178;2024-03-02T09:35:57;5.80;99.90
64226;DHT22;50545;56.064;26.178;2024-03-02T09:38:25;5.80;99.90
64226;DHT22;50545;56.064;26.178;2024-03-02T09:40:53;5.90;99.90
64226;DHT22;50545;56.064;26.178;2024-03-02T09:43:20;5.90;99.90
64226;DHT22;50545;56.064;26.178;2024-03-02T09:45:48;6.10;99.90
64226;DHT22;50545;56.064;26.178;2024-03-02T09:48:16;6.20;99.90
64226;DHT22;50545;56.064;26.178;2024-03-02T09:50:46;6.20;99.90
64226;DHT22;50545;56.064;26.178;2024-03-02T09:53:14;6.20;99.90
64226;DHT22;50545;56.064;26.178;2024-03-02T09:55:46;6.10;99.90
64226;DHT22;50545;56.064;26.178;2024-03-02T09:58:14;6.10;99.90
64226;DHT22;50545;56.064;26.178;2024-03-02T10:00:41;6.10;99.90
64226;DHT22;50545;56.064;26.178;2024-03-02T10:03:13;6.10;99.90
64226;DHT22;50545;56.064;26.178;2024-03-02T10:05:41;6.00;99.90
64226;DHT22;50545;56.064;26.178;2024-03-02T10:08:08;6.00;99.90
64226;DHT22;50545;56.064;26.178;2024-03-02T10:10:36;6.00;99.90
64226;DHT22;50545;56.064;26.178;2024-03-02T10:13:09;6.10;99.90
64226;DHT22;50545;56.064;26.178;2024-03-02T10:15:37;6.10;99.90
64226;DHT22;50545;56.064;26.178;2024-03-02T10:18:05;6.10;99.90
64226;DHT22;50545;56.064;26.178;2024-03-02T10:20:35;6.10;99.90
64226;DHT22;50545;56.064;26.178;2024-03-02T10:23:16;6.10;99.90
64226;DHT22;50545;56.064;26.178;2024-03-02T10:25:45;6.20;99.90
64226;DHT22;50545;56.064;26.178;2024-03-02T10:28:24;6.20;99.90
64226;DHT22;50545;56.064;26.178;2024-03-02T10:30:52;6.30;99.90
64226;DHT22;50545;56.064;26.178;2024-03-02T10:33:20;6.40;99.90
64226;DHT22;50545;56.064;26.178;2024-03-02T10:35:49;6.50;99.90
64226;DHT22;50545;56.064;26.178;2024-03-02T10:38:17;6.60;99.90
64226;DHT22;50545;56.064;26.178;2024-03-02T10:40:48;6.60;99.90
64226;DHT22;50545;56.064;26.178;2024-03-02T10:43:16;6.70;99.70
64226;DHT22;50545;56.064;26.178;2024-03-02T10:45:45;6.80;99.40
64226;DHT22;50545;56.064;26.178;2024-03-02T10:48:16;6.90;99.20
64226;DHT22;50545;56.064;26.178;2024-03-02T10:50:45;7.00;98.20
64226;DHT22;50545;56.064;26.178;2024-03-02T10:53:12;7.10;98.10
64226;DHT22;50545;56.064;26.178;2024-03-02T10:55:40;7.30;98.60
64226;DHT22;50545;56.064;26.178;2024-03-02T10:58:12;7.40;98.00
64226;DHT22;50545;56.064;26.178;2024-03-02T11:00:41;7.50;97.80
64226;DHT22;50545;56.064;26.178;2024-03-02T11:03:11;7.60;97.50
64226;DHT22;50545;56.064;26.178;2024-03-02T11:05:43;7.70;96.90
64226;DHT22;50545;56.064;26.178;2024-03-02T11:08:17;7.70;96.70
64226;DHT22;50545;56.064;26.178;2024-03-02T11:10:58;7.70;97.40
64226;DHT22;50545;56.064;26.178;2024-03-02T11:13:32;7.80;95.60
64226;DHT22;50545;56.064;26.178;2024-03-02T11:16:18;7.90;95.40
64226;DHT22;50545;56.064;26.178;2024-03-02T11:18:46;7.90;95.60
64226;DHT22;50545;56.064;26.178;2024-03-02T11:21:17;8.00;96.10
64226;DHT22;50545;56.064;26.178;2024-03-02T11:23:45;8.00;96.50
64226;DHT22;50545;56.064;26.178;2024-03-02T11:26:24;8.10;96.30
64226;DHT22;50545;56.064;26.178;2024-03-02T11:28:52;8.20;95.20
64226;DHT22;50545;56.064;26.178;2024-03-02T11:31:19;8.30;95.90
64226;DHT22;50545;56.064;26.178;2024-03-02T11:33:47;8.30;95.60
64226;DHT22;50545;56.064;26.178;2024-03-02T11:36:15;8.30;95.70
64226;DHT22;50545;56.064;26.178;2024-03-02T11:38:44;8.40;94.90
64226;DHT22;50545;56.064;26.178;2024-03-02T11:41:13;8.40;95.40
64226;DHT22;50545;56.064;26.178;2024-03-02T11:43:42;8.40;95.20
64226;DHT22;50545;56.064;26.178;2024-03-02T11:46:11;8.40;95.20
64226;DHT22;50545;56.064;26.178;2024-03-02T11:48:40;8.50;94.70
64226;DHT22;50545;56.064;26.178;2024-03-02T11:51:08;8.50;94.70
64226;DHT22;50545;56.064;26.178;2024-03-02T11:53:38;8.50;94.70
64226;DHT22;50545;56.064;26.178;2024-03-02T11:56:09;8.40;94.60
64226;DHT22;50545;56.064;26.178;2024-03-02T11:58:39;8.40;94.70
64226;DHT22;50545;56.064;26.178;2024-03-02T12:01:08;8.50;95.40
64226;DHT22;50545;56.064;26.178;2024-03-02T12:03:38;8.60;95.40
64226;DHT22;50545;56.064;26.178;2024-03-02T12:06:06;8.60;94.10
64226;DHT22;50545;56.064;26.178;2024-03-02T12:08:34;8.60;94.50
64226;DHT22;50545;56.064;26.178;2024-03-02T12:11:03;8.60;94.70
64226;DHT22;50545;56.064;26.178;2024-03-02T12:13:31;8.60;94.60
64226;DHT22;50545;56.064;26.178;2024-03-02T12:15:59;8.70;94.20
64226;DHT22;50545;56.064;26.178;2024-03-02T12:18:26;8.70;94.10
64226;DHT22;50545;56.064;26.178;2024-03-02T12:20:54;8.70;93.90
64226;DHT22;50545;56.064;26.178;2024-03-02T12:23:26;8.60;93.70
64226;DHT22;50545;56.064;26.178;2024-03-02T12:25:54;8.60;93.60
64226;DHT22;50545;56.064;26.178;2024-03-02T12:28:22;8.70;94.10
64226;DHT22;50545;56.064;26.178;2024-03-02T12:30:49;8.70;93.70
64226;DHT22;50545;56.064;26.178;2024-03-02T12:33:17;8.70;94.40
64226;DHT22;50545;56.064;26.178;2024-03-02T12:35:45;8.70;94.00
64226;DHT22;50545;56.064;26.178;2024-03-02T12:38:14;8.70;94.80
64226;DHT22;50545;56.064;26.178;2024-03-02T12:40:42;8.70;94.80
64226;DHT22;50545;56.064;26.178;2024-03-02T12:43:09;8.70;93.90
64226;DHT22;50545;56.064;26.178;2024-03-02T12:45:38;8.70;94.10
64226;DHT22;50545;56.064;26.178;2024-03-02T12:48:06;8.60;93.80
64226;DHT22;50545;56.064;26.178;2024-03-02T12:50:33;8.70;94.00
64226;DHT22;50545;56.064;26.178;2024-03-02T12:53:01;8.70;94.00
64226;DHT22;50545;56.064;26.178;2024-03-02T12:55:29;8.70;94.00
64226;DHT22;50545;56.064;26.178;2024-03-02T12:57:57;8.70;94.30
64226;DHT22;50545;56.064;26.178;2024-03-02T13:00:26;8.80;93.80
64226;DHT22;50545;56.064;26.178;2024-03-02T13:02:56;8.80;94.60
64226;DHT22;50545;56.064;26.178;2024-03-02T13:05:32;8.90;93.60
64226;DHT22;50545;56.064;26.178;2024-03-02T13:08:00;8.90;93.50
64226;DHT22;50545;56.064;26.178;2024-03-02T13:10:31;8.90;93.50
64226;DHT22;50545;56.064;26.178;2024-03-02T13:12:59;9.00;93.10
64226;DHT22;50545;56.064;26.178;2024-03-02T13:15:28;9.00;93.20
64226;DHT22;50545;56.064;26.178;2024-03-02T13:17:58;9.00;93.30
64226;DHT22;50545;56.064;26.178;2024-03-02T13:20:31;9.10;93.40
64226;DHT22;50545;56.064;26.178;2024-03-02T13:23:02;9.10;93.50
64226;DHT22;50545;56.064;26.178;2024-03-02T13:25:30;9.20;93.70
64226;DHT22;50545;56.064;26.178;2024-03-02T13:27:59;9.20;93.40
64226;DHT22;50545;56.064;26.178;2024-03-02T13:30:28;9.20;93.50
64226;DHT22;50545;56.064;26.178;2024-03-02T13:32:55;9.30;93.30
64226;DHT22;50545;56.064;26.178;2024-03-02T13:35:23;9.30;93.10
64226;DHT22;50545;56.064;26.178;2024-03-02T13:37:50;9.30;92.90
64226;DHT22;50545;56.064;26.178;2024-03-02T13:40:18;9.30;93.10
64226;DHT22;50545;56.064;26.178;2024-03-02T13:42:47;9.20;92.70
64226;DHT22;50545;56.064;26.178;2024-03-02T13:45:15;9.20;93.80
64226;DHT22;50545;56.064;26.178;2024-03-02T13:47:43;9.10;93.30
64226;DHT22;50545;56.064;26.178;2024-03-02T13:50:11;9.10;93.60
64226;DHT22;50545;56.064;26.178;2024-03-02T13:52:38;9.00;93.00
64226;DHT22;50545;56.064;26.178;2024-03-02T13:55:07;8.90;93.40
64226;DHT22;50545;56.064;26.178;2024-03-02T13:57:35;8.90;93.30
64226;DHT22;50545;56.064;26.178;2024-03-02T14:00:03;8.90;93.50
64226;DHT22;50545;56.064;26.178;2024-03-02T14:02:38;8.90;93.60
64226;DHT22;50545;56.064;26.178;2024-03-02T14:05:06;8.90;93.20
64226;DHT22;50545;56.064;26.178;2024-03-02T14:07:38;8.90;93.30
64226;DHT22;50545;56.064;26.178;2024-03-02T14:10:06;8.90;93.30
64226;DHT22;50545;56.064;26.178;2024-03-02T14:12:34;9.00;93.20
64226;DHT22;50545;56.064;26.178;2024-03-02T14:15:01;9.00;93.50
64226;DHT22;50545;56.064;26.178;2024-03-02T14:17:30;9.00;93.20
64226;DHT22;50545;56.064;26.178;2024-03-02T14:20:00;9.00;93.20
64226;DHT22;50545;56.064;26.178;2024-03-02T14:22:28;8.90;93.10
64226;DHT22;50545;56.064;26.178;2024-03-02T14:24:55;9.00;93.10
64226;DHT22;50545;56.064;26.178;2024-03-02T14:27:23;9.00;93.00
64226;DHT22;50545;56.064;26.178;2024-03-02T14:30:10;8.90;93.30
64226;DHT22;50545;56.064;26.178;2024-03-02T14:32:38;8.90;93.00
64226;DHT22;50545;56.064;26.178;2024-03-02T14:35:06;8.90;93.00
64226;DHT22;50545;56.064;26.178;2024-03-02T14:37:37;8.90;93.30
64226;DHT22;50545;56.064;26.178;2024-03-02T14:40:05;8.90;93.50
64226;DHT22;50545;56.064;26.178;2024-03-02T14:42:33;8.90;92.90
64226;DHT22;50545;56.064;26.178;2024-03-02T14:45:01;8.90;93.00
64226;DHT22;50545;56.064;26.178;2024-03-02T14:47:32;8.90;93.10
64226;DHT22;50545;56.064;26.178;2024-03-02T14:50:03;8.90;93.00
64226;DHT22;50545;56.064;26.178;2024-03-02T14:52:34;8.90;93.00
64226;DHT22;50545;56.064;26.178;2024-03-02T14:55:01;8.90;92.90
64226;DHT22;50545;56.064;26.178;2024-03-02T14:57:34;8.90;92.80
64226;DHT22;50545;56.064;26.178;2024-03-02T15:00:02;8.80;93.30
64226;DHT22;50545;56.064;26.178;2024-03-02T15:02:33;8.70;93.20
64226;DHT22;50545;56.064;26.178;2024-03-02T15:05:01;8.60;93.20
64226;DHT22;50545;56.064;26.178;2024-03-02T15:07:28;8.50;93.20
64226;DHT22;50545;56.064;26.178;2024-03-02T15:09:56;8.40;93.60
64226;DHT22;50545;56.064;26.178;2024-03-02T15:12:24;8.30;93.80
64226;DHT22;50545;56.064;26.178;2024-03-02T15:14:51;8.20;93.80
64226;DHT22;50545;56.064;26.178;2024-03-02T15:17:19;8.10;94.20
64226;DHT22;50545;56.064;26.178;2024-03-02T15:19:47;8.00;94.30
64226;DHT22;50545;56.064;26.178;2024-03-02T15:22:14;7.90;94.50
64226;DHT22;50545;56.064;26.178;2024-03-02T15:24:42;7.80;94.90
64226;DHT22;50545;56.064;26.178;2024-03-02T15:27:09;7.70;95.10
64226;DHT22;50545;56.064;26.178;2024-03-02T15:29:38;7.60;95.30
64226;DHT22;50545;56.064;26.178;2024-03-02T15:32:06;7.40;95.60
64226;DHT22;50545;56.064;26.178;2024-03-02T15:34:34;7.30;95.70
64226;DHT22;50545;56.064;26.178;2024-03-02T15:37:02;7.10;96.10
64226;DHT22;50545;56.064;26.178;2024-03-02T15:39:31;7.00;96.40
64226;DHT22;50545;56.064;26.178;2024-03-02T15:41:59;6.90;96.70